Time;durP1;ratioP1;P1;durP2;ratioP2;P2;SDS_P1;SDS_P2;PMS_P1;PMS_P2;Temp;Humidity;BMP_temperature;BMP_pressure;BME280_temperature;BME280_humidity;BME280_pressure;Samples;Min_cycle;Max_cycle;Signal;HPM_P1;HPM_P2
2024/03/28 00:02:08;;;;;;;12.80;5.75;;;;;;;12.91;59.07;97476.63;5023597;27;101614;-90
2024/03/28 00:04:33;;;;;;;12.27;5.47;;;;;;;13.02;58.97;97488.00;5024316;27;96647;-90
2024/03/28 00:06:59;;;;;;;13.57;5.38;;;;;;;13.08;59.07;97480.38;5041398;27;96903;-89
2024/03/28 00:09:25;;;;;;;15.45;5.72;;;;;;;13.05;59.02;97493.00;5023656;27;101573;-90
2024/03/28 00:11:51;;;;;;;19.88;5.38;;;;;;;12.88;59.28;97455.81;5024003;27;100641;-90
2024/03/28 00:14:17;;;;;;;17.20;5.65;;;;;;;12.95;59.28;97464.03;5024600;27;96601;-89
2024/03/28 00:16:43;;;;;;;14.40;6.20;;;;;;;12.91;59.43;97447.69;5024689;27;96543;-90
2024/03/28 00:19:09;;;;;;;12.07;5.50;;;;;;;13.04;58.96;97463.19;5040885;27;99694;-89
2024/03/28 00:21:37;;;;;;;17.08;6.85;;;;;;;13.14;59.28;97456.13;5024095;27;101345;-89
2024/03/28 00:24:04;;;;;;;14.93;6.50;;;;;;;13.12;59.26;97459.91;5041466;27;96524;-89
2024/03/28 00:26:29;;;;;;;12.45;6.97;;;;;;;13.04;59.64;97438.69;5024478;27;96833;-89
2024/03/28 00:28:55;;;;;;;21.58;5.78;;;;;;;13.06;nan;97442.84;5040659;27;101542;-89
2024/03/28 00:31:21;;;;;;;13.52;5.90;;;;;;;13.01;60.03;97442.41;5040683;27;101397;-89
2024/03/28 00:33:46;;;;;;;12.70;6.32;;;;;;;13.01;59.67;97444.22;5023610;27;96578;-88
2024/03/28 00:36:12;;;;;;;15.63;6.68;;;;;;;13.02;60.15;97438.78;5024166;27;96802;-88
2024/03/28 00:38:37;;;;;;;10.90;6.32;;;;;;;13.02;60.20;97440.59;5057955;27;97593;-88
2024/03/28 00:41:03;;;;;;;18.88;6.63;;;;;;;13.02;60.46;97433.53;5040520;27;101262;-90
2024/03/28 00:43:29;;;;;;;11.48;5.95;;;;;;;12.89;60.58;97412.75;5024429;27;96592;-89
2024/03/28 00:45:54;;;;;;;13.65;5.25;;;;;;;12.96;60.90;97431.44;5024162;27;96776;-90
2024/03/28 00:48:20;;;;;;;14.05;6.57;;;;;;;12.94;61.34;97417.59;5023936;27;101005;-90
2024/03/28 00:50:56;;;;;;;10.52;5.75;;;;;;;12.92;61.23;97414.28;5024106;27;101024;-89
2024/03/28 00:53:22;;;;;;;13.27;6.13;;;;;;;13.01;61.48;97416.06;5024166;27;96516;-90
2024/03/28 00:55:48;;;;;;;14.05;5.75;;;;;;;12.98;60.77;97405.00;5024136;27;96753;-90
2024/03/28 00:58:15;;;;;;;22.17;6.07;;;;;;;13.06;60.92;97423.53;5023160;27;101699;-90
2024/03/28 01:00:41;;;;;;;16.55;7.00;;;;;;;13.06;61.08;97419.13;5040363;27;100438;-90
2024/03/28 01:03:07;;;;;;;13.18;5.72;;;;;;;13.05;60.73;97406.09;5023657;27;96760;-90
2024/03/28 01:05:33;;;;;;;12.43;5.85;;;;;;;13.06;61.36;97421.78;5023978;27;96795;-90
2024/03/28 01:07:59;;;;;;;9.60;5.93;;;;;;;13.08;61.33;97418.97;5040126;27;101385;-88
2024/03/28 01:10:24;;;;;;;14.98;6.18;;;;;;;13.13;61.82;97433.41;5040160;27;101109;-90
2024/03/28 01:12:50;;;;;;;13.25;5.43;;;;;;;13.11;61.38;97416.91;5042407;27;96507;-90
2024/03/28 01:15:17;;;;;;;13.73;5.55;;;;;;;13.20;60.91;97433.66;5044483;27;96917;-90
2024/03/28 01:17:43;;;;;;;11.43;5.30;;;;;;;13.24;60.81;97434.25;5027085;27;100211;-90
2024/03/28 01:20:09;;;;;;;14.60;5.60;;;;;;;13.29;60.96;97421.50;5026861;27;101501;-90
2024/03/28 01:22:35;;;;;;;16.17;5.55;;;;;;;13.29;60.64;97425.00;5026669;27;96676;-89
2024/03/28 01:25:00;;;;;;;15.68;6.50;;;;;;;13.20;60.27;97398.59;5061448;27;96918;-89
2024/03/28 01:27:26;;;;;;;14.45;4.90;;;;;;;13.38;60.23;97420.69;5043523;27;100961;-90
2024/03/28 01:29:52;;;;;;;11.40;5.10;;;;;;;13.44;59.73;97419.25;5026574;27;101203;-89
2024/03/28 01:32:19;;;;;;;11.15;5.00;;;;;;;13.48;59.80;97424.13;5043891;27;96603;-90
2024/03/28 01:34:45;;;;;;;14.75;5.72;;;;;;;13.48;59.78;97416.22;5044174;27;96764;-90
2024/03/28 01:37:13;;;;;;;14.45;5.70;;;;;;;13.45;59.37;97405.13;5043939;27;101639;-90
2024/03/28 01:39:39;;;;;;;17.67;5.95;;;;;;;13.49;59.52;97412.59;5028616;27;99599;-89
2024/03/28 01:42:04;;;;;;;14.35;5.68;;;;;;;13.49;59.78;97411.78;5044504;27;96583;-90
2024/03/28 01:44:30;;;;;;;16.23;5.55;;;;;;;13.46;59.42;97417.34;5043942;27;96759;-90
2024/03/28 01:46:56;;;;;;;13.70;5.57;;;;;;;13.39;59.08;97401.25;5042568;27;101023;-90
2024/03/28 01:49:22;;;;;;;12.40;5.55;;;;;;;13.44;59.42;97399.03;5043497;27;97628;-89
2024/03/28 01:51:48;;;;;;;17.60;5.85;;;;;;;13.27;59.43;97365.50;5026679;27;96705;-90
2024/03/28 01:54:14;;;;;;;17.05;5.45;;;;;;;13.30;59.40;97367.88;5026651;27;96907;-89
2024/03/28 01:56:42;;;;;;;12.32;6.75;;;;;;;13.42;59.29;97379.91;5026352;27;101031;-89
2024/03/28 01:59:09;;;;;;;17.33;7.43;;;;;;;13.43;59.50;97386.81;5043257;27;100993;-88
2024/03/28 02:01:39;;;;;;;15.23;7.35;;;;;;;13.36;59.47;97391.84;5026979;27;96595;-90
2024/03/28 02:04:07;;;;;;;18.77;5.40;;;;;;;13.34;59.06;97392.94;5043126;27;96877;-90
2024/03/28 02:06:42;;;;;;;19.48;6.82;;;;;;;13.34;59.65;97377.13;5043206;27;100267;-90
2024/03/28 02:09:08;;;;;;;11.73;6.35;;;;;;;13.34;59.57;97382.41;5043431;27;98306;-89
2024/03/28 02:11:34;;;;;;;16.70;7.28;;;;;;;13.32;59.81;97379.94;5025963;27;96577;-90
2024/03/28 02:14:00;;;;;;;13.77;6.57;;;;;;;13.32;59.71;97385.19;5026357;27;96834;-89
2024/03/28 02:16:26;;;;;;;15.13;6.60;;;;;;;13.30;60.10;97388.94;5042709;27;101702;-89
2024/03/28 02:19:00;;;;;;;20.92;6.55;;;;;;;13.18;60.06;97368.94;5026086;27;100927;-89
2024/03/28 02:21:26;;;;;;;15.50;6.25;;;;;;;13.23;59.91;97377.25;5026350;27;96632;-89
2024/03/28 02:23:53;;;;;;;18.17;6.88;;;;;;;13.23;60.37;97380.72;5042723;27;96893;-89
2024/03/28 02:26:20;;;;;;;12.73;6.90;;;;;;;13.22;59.88;97360.63;5025495;27;101595;-89
2024/03/28 02:28:45;;;;;;;15.98;6.78;;;;;;;13.25;60.31;97377.94;5026113;27;101315;-90
2024/03/28 02:31:11;;;;;;;19.63;6.03;;;;;;;13.21;59.81;97368.69;5026145;27;96543;-90
2024/03/28 02:33:37;;;;;;;14.23;5.95;;;;;;;13.24;59.71;97356.06;5042753;27;96940;-90
2024/03/28 02:36:03;;;;;;;19.42;6.70;;;;;;;13.13;60.52;97367.56;5026140;27;99950;-90
2024/03/28 02:38:29;;;;;;;19.80;7.38;;;;;;;13.20;60.23;97365.19;5042488;27;101403;-90
2024/03/28 02:40:55;;;;;;;15.85;7.03;;;;;;;13.18;60.46;97361.88;5043075;27;96561;-89
2024/03/28 02:43:20;;;;;;;20.10;7.15;;;;;;;13.09;60.23;97365.38;5042723;27;96908;-89
2024/03/28 02:45:46;;;;;;;17.35;6.63;;;;;;;13.06;60.88;97371.75;5042411;27;100003;-89
2024/03/28 02:48:12;;;;;;;18.08;6.85;;;;;;;13.17;60.25;97378.63;5042296;27;100296;-88
2024/03/28 02:50:37;;;;;;;13.90;6.40;;;;;;;13.20;60.49;97388.06;5025669;27;96621;-89
2024/03/28 02:53:03;;;;;;;16.30;6.68;;;;;;;13.19;60.36;97376.72;5042993;27;96922;-88
2024/03/28 02:55:29;;;;;;;19.95;7.53;;;;;;;13.20;60.63;97369.63;5025300;27;101093;-89
2024/03/28 02:57:54;;;;;;;17.75;7.28;;;;;;;13.14;60.32;97352.59;5025280;27;101341;-89
2024/03/28 03:00:20;;;;;;;21.60;6.68;;;;;;;13.21;60.72;97361.59;5025016;27;96679;-89
2024/03/28 03:02:45;;;;;;;10.77;6.20;;;;;;;13.20;60.55;97349.38;5042490;27;96805;-89
2024/03/28 03:05:11;;;;;;;16.58;6.82;;;;;;;13.26;60.42;97346.22;5042303;27;98465;-90
2024/03/28 03:07:36;;;;;;;13.82;6.15;;;;;;;13.26;60.68;97340.94;5024990;27;100583;-89
2024/03/28 03:10:02;;;;;;;19.45;6.88;;;;;;;13.20;60.30;97340.66;5059208;27;96548;-89
2024/03/28 03:12:28;;;;;;;15.15;6.93;;;;;;;13.20;60.56;97346.75;5042581;27;96856;-90
2024/03/28 03:14:53;;;;;;;18.58;6.45;;;;;;;13.14;60.70;97342.06;5042005;27;100188;-88
2024/03/28 03:17:19;;;;;;;16.80;6.05;;;;;;;13.17;61.06;97344.41;5025649;27;99365;-89
2024/03/28 03:19:44;;;;;;;19.60;6.68;;;;;;;12.90;61.37;97308.28;5042257;27;96587;-90
2024/03/28 03:22:11;;;;;;;18.30;6.88;;;;;;;13.19;60.96;97362.72;5042507;27;96592;-88
2024/03/28 03:24:38;;;;;;;20.17;6.70;;;;;;;13.10;60.93;97332.78;5024582;27;100809;-88
2024/03/28 03:27:04;;;;;;;17.77;6.13;;;;;;;13.18;61.12;97345.22;5025307;27;100272;-88
2024/03/28 03:34:59;;;;;;;22.42;7.00;;;;;;;13.10;61.39;97333.59;5044060;27;100891;-90
2024/03/28 03:37:26;;;;;;;20.38;7.22;;;;;;;13.07;61.20;97338.34;5041478;27;99925;-87
2024/03/28 03:39:55;;;;;;;20.33;7.18;;;;;;;12.99;61.14;97317.13;5042075;27;96647;-88
2024/03/28 03:42:21;;;;;;;22.48;7.45;;;;;;;13.06;61.68;97328.75;5025345;27;97060;-90
2024/03/28 03:44:47;;;;;;;23.40;6.55;;;;;;;13.08;61.97;97329.44;5041278;27;101595;-90
2024/03/28 03:47:12;;;;;;;20.77;8.18;;;;;;;13.04;61.79;97321.00;5024481;27;101789;-89
2024/03/28 03:49:43;;;;;;;22.10;7.05;;;;;;;13.09;61.95;97331.97;5040956;27;96566;-90
2024/03/28 03:52:14;;;;;;;17.00;7.20;;;;;;;13.15;61.51;97338.47;5025519;27;96691;-89
2024/03/28 03:54:40;;;;;;;24.10;6.80;;;;;;;12.92;61.82;97306.34;5041684;27;98349;-90
2024/03/28 03:57:06;;;;;;;17.92;7.53;;;;;;;13.13;62.47;97354.41;5024543;27;100283;-90
2024/03/28 03:59:32;;;;;;;18.23;6.40;;;;;;;13.21;62.51;97343.16;5041822;27;96547;-88
2024/03/28 04:01:58;;;;;;;21.42;6.53;;;;;;;13.16;62.90;97342.75;5041769;27;96820;-89
2024/03/28 04:04:23;;;;;;;20.73;7.22;;;;;;;13.07;63.08;97343.59;5040739;27;98217;-90
2024/03/28 04:06:49;;;;;;;24.42;7.40;;;;;;;13.02;64.32;97330.00;5041474;27;101660;-90
2024/03/28 04:09:14;;;;;;;26.20;6.93;;;;;;;12.92;64.47;97311.59;5024701;27;96507;-87
2024/03/28 04:11:40;;;;;;;24.83;6.65;;;;;;;12.96;64.80;97334.03;5041243;27;96555;-88
2024/03/28 04:14:05;;;;;;;25.50;7.18;;;;;;;12.90;64.62;97337.22;5040933;27;97951;-88
2024/03/28 04:16:31;;;;;;;26.33;7.43;;;;;;;12.95;64.51;97337.66;5041262;27;98355;-88
2024/03/28 04:18:57;;;;;;;23.77;7.15;;;;;;;12.89;64.64;97343.47;5024368;27;96722;-89
2024/03/28 04:21:23;;;;;;;20.42;7.15;;;;;;;12.93;64.29;97344.84;5024346;27;96870;-89
2024/03/28 04:23:48;;;;;;;23.27;7.40;;;;;;;12.87;64.90;97333.06;5040993;27;101543;-88
2024/03/28 04:26:14;;;;;;;19.98;6.70;;;;;;;12.83;64.87;97342.22;5024278;27;100755;-88
2024/03/28 04:28:39;;;;;;;19.38;7.75;;;;;;;12.81;65.01;97357.31;5041757;27;96657;-90
2024/03/28 04:31:05;;;;;;;22.48;7.88;;;;;;;12.87;64.83;97353.31;5024867;27;96549;-88
2024/03/28 04:33:31;;;;;;;23.05;7.00;;;;;;;12.84;65.21;97351.78;5023713;27;100329;-88
2024/03/28 04:35:57;;;;;;;22.83;7.25;;;;;;;12.85;64.99;97366.59;5040848;27;101185;-88
2024/03/28 04:38:22;;;;;;;19.73;7.00;;;;;;;12.86;65.02;97347.22;5025438;27;96600;-87
2024/03/28 04:40:48;;;;;;;27.30;7.20;;;;;;;12.87;65.22;97346.22;5041293;27;96760;-88
2024/03/28 04:43:13;;;;;;;20.85;7.40;;;;;;;12.86;65.09;97347.22;5057913;27;97948;-88
2024/03/28 04:45:39;;;;;;;23.05;8.00;;;;;;;12.87;65.28;97340.97;5040594;27;101763;-88
2024/03/28 04:48:05;;;;;;;29.98;8.27;;;;;;;12.92;64.90;97330.03;5042932;27;96564;-89
2024/03/28 04:50:30;;;;;;;28.20;7.40;;;;;;;12.98;64.99;97339.19;5044962;27;96799;-88
2024/03/28 04:52:56;;;;;;;27.08;7.68;;;;;;;12.96;64.78;97336.66;5061407;27;98553;-88
2024/03/28 04:55:21;;;;;;;28.35;8.00;;;;;;;13.01;65.26;97336.25;5027775;27;101392;-88
2024/03/28 04:57:47;;;;;;;22.65;8.18;;;;;;;13.04;65.05;97328.91;5044284;27;96544;-89
2024/03/28 05:00:13;;;;;;;25.15;7.15;;;;;;;13.10;65.13;97319.63;5044209;27;96909;-88
2024/03/28 05:02:39;;;;;;;32.97;7.35;;;;;;;13.10;65.14;97314.34;5026757;27;101149;-89
2024/03/28 05:05:06;;;;;;;34.20;8.45;;;;;;;13.12;65.24;97318.50;5023406;27;101516;-88
2024/03/28 05:07:37;;;;;;;33.95;8.20;;;;;;;13.22;65.00;97310.56;5040797;27;96546;-89
2024/03/28 05:10:06;;;;;;;32.40;7.43;;;;;;;13.24;64.66;97302.56;5053814;27;96841;-88
2024/03/28 05:12:34;;;;;;;31.45;8.20;;;;;;;13.18;64.82;97282.88;5040282;27;101462;-88
2024/03/28 05:15:03;;;;;;;32.03;7.57;;;;;;;13.29;64.89;97295.06;5023652;27;101565;-89
2024/03/28 05:17:29;;;;;;;35.13;8.10;;;;;;;13.19;64.95;97286.34;5041111;27;96544;-89
2024/03/28 05:19:54;;;;;;;32.28;8.38;;;;;;;13.25;64.48;97291.03;5041391;27;96831;-89
2024/03/28 05:22:20;;;;;;;38.42;8.18;;;;;;;13.28;65.34;97310.03;5040597;27;98316;-89
2024/03/28 05:24:46;;;;;;;41.10;8.60;;;;;;;13.34;64.93;97316.53;5023613;27;101187;-90
2024/03/28 05:27:12;;;;;;;32.10;8.63;;;;;;;13.41;64.72;97324.69;5023590;27;96594;-89
2024/03/28 05:29:41;;;;;;;36.70;9.00;;;;;;;13.29;64.72;97311.72;5040790;27;96671;-88
2024/03/28 05:32:07;;;;;;;30.58;7.82;;;;;;;13.45;64.89;97328.72;5040515;27;98474;-88
2024/03/28 05:34:32;;;;;;;40.53;8.18;;;;;;;13.44;64.90;97335.81;5040167;27;101361;-89
2024/03/28 05:36:58;;;;;;;43.25;7.57;;;;;;;13.53;64.48;97342.03;5023485;27;96523;-88
2024/03/28 05:39:24;;;;;;;38.50;8.75;;;;;;;13.55;64.80;97337.44;5023517;27;96639;-90
2024/03/28 05:41:49;;;;;;;37.28;9.90;;;;;;;13.54;64.83;97343.69;5023369;27;100245;-89
2024/03/28 05:44:15;;;;;;;32.28;8.18;;;;;;;13.53;64.97;97334.94;5040657;27;98291;-89
2024/03/28 05:46:40;;;;;;;45.45;9.75;;;;;;;13.51;64.56;97328.97;5040691;27;96652;-89
2024/03/28 05:49:06;;;;;;;40.20;9.48;;;;;;;13.51;64.61;97323.72;5023596;27;96887;-89
2024/03/28 05:51:32;;;;;;;36.35;8.68;;;;;;;13.64;64.37;97323.38;5024078;27;101217;-90
2024/03/28 05:53:58;;;;;;;37.78;9.73;;;;;;;13.57;64.54;97303.88;5023303;27;100759;-89
2024/03/28 05:56:23;;;;;;;26.83;8.68;;;;;;;13.53;64.55;97307.78;5040106;27;96587;-88
2024/03/28 05:58:49;;;;;;;45.17;9.07;;;;;;;13.68;65.02;97326.59;5022213;27;96923;-90
2024/03/28 06:01:15;;;;;;;26.08;7.40;;;;;;;13.67;64.87;97315.22;5024386;27;99819;-89
2024/03/28 06:03:41;;;;;;;34.60;8.63;;;;;;;13.62;64.86;97306.06;5023889;27;101155;-90
2024/03/28 06:06:06;;;;;;;30.83;8.07;;;;;;;13.71;64.89;97315.75;5046583;27;96566;-90
2024/03/28 06:08:33;;;;;;;40.72;8.13;;;;;;;13.56;64.78;97286.41;5041326;27;96476;-90
2024/03/28 06:10:59;;;;;;;35.03;8.20;;;;;;;13.88;64.59;97314.97;5039734;27;101420;-91
2024/03/28 06:13:27;;;;;;;35.67;8.18;;;;;;;14.01;64.19;97318.09;5022728;27;101205;-91
2024/03/28 06:15:53;;;;;;;29.27;7.72;;;;;;;13.97;64.09;97314.09;5041475;27;96599;-90
2024/03/28 06:18:18;;;;;;;40.08;8.25;;;;;;;14.07;63.99;97339.59;5024484;27;96834;-91
2024/03/28 06:20:44;;;;;;;30.77;7.40;;;;;;;13.84;64.37;97302.22;5040465;27;101472;-90
2024/03/28 06:23:11;;;;;;;39.10;9.10;;;;;;;13.97;64.01;97318.56;5023407;27;101705;-92
2024/03/28 06:25:40;;;;;;;30.10;7.40;;;;;;;14.00;64.04;97315.63;5023125;27;96527;-89
2024/03/28 06:28:08;;;;;;;27.60;7.22;;;;;;;14.05;63.46;97323.94;5022935;27;96794;-89
2024/03/28 06:30:35;;;;;;;29.83;7.35;;;;;;;14.11;63.84;97315.44;5057755;27;97501;-91
2024/03/28 06:33:01;;;;;;;36.97;7.50;;;;;;;13.97;63.57;97289.53;5040019;27;101295;-88
2024/03/28 06:35:27;;;;;;;34.05;7.70;;;;;;;14.12;63.39;97316.25;5040377;27;96623;-90
2024/03/28 06:37:52;;;;;;;26.42;7.07;;;;;;;14.10;63.60;97320.84;5022976;27;96873;-89
2024/03/28 06:40:18;;;;;;;24.33;6.25;;;;;;;14.17;63.70;97357.03;5039449;27;97398;-89
2024/03/28 06:42:44;;;;;;;29.90;5.43;;;;;;;13.98;63.37;97330.75;5039434;27;101275;-89
2024/03/28 06:45:09;;;;;;;28.23;5.72;;;;;;;14.19;62.94;97364.78;5022993;27;96554;-90
2024/03/28 06:47:35;;;;;;;15.85;4.00;;;;;;;14.30;62.38;97369.88;5039768;27;97000;-89
2024/03/28 06:50:01;;;;;;;18.10;3.95;;;;;;;14.34;62.23;97375.69;5022285;27;101189;-90
2024/03/28 06:52:27;;;;;;;15.98;4.32;;;;;;;14.34;62.15;97392.38;5022109;27;100124;-89
2024/03/28 06:54:52;;;;;;;11.23;3.55;;;;;;;14.36;62.14;97397.47;5039181;27;96604;-90
2024/03/28 06:57:18;;;;;;;12.35;2.97;;;;;;;14.32;62.28;97391.69;5057113;27;96808;-90
2024/03/28 06:59:44;;;;;;;15.52;2.55;;;;;;;14.02;61.62;97346.16;5039406;27;97792;-91
2024/03/28 07:02:09;;;;;;;5.78;2.63;;;;;;;13.81;61.21;97363.97;5022366;27;100861;-90
2024/03/28 07:04:35;;;;;;;7.38;2.30;;;;;;;14.04;61.33;97391.66;5055376;27;96737;-90
2024/03/28 07:07:00;;;;;;;4.78;2.05;;;;;;;13.84;61.56;97389.22;5056593;27;96658;-90
2024/03/28 07:09:26;;;;;;;4.35;1.75;;;;;;;13.97;61.82;97410.84;5056068;27;98387;-89
2024/03/28 07:11:52;;;;;;;4.53;2.15;;;;;;;13.83;62.24;97409.50;5039331;27;101443;-90
2024/03/28 07:14:18;;;;;;;3.95;1.90;;;;;;;13.67;62.99;97391.66;5040098;27;96602;-90
2024/03/28 07:16:44;;;;;;;7.72;2.63;;;;;;;13.65;62.85;97376.94;5039206;27;96636;-90
2024/03/28 07:19:10;;;;;;;5.63;1.90;;;;;;;13.77;62.32;97408.25;5038938;27;98573;-89
2024/03/28 07:21:36;;;;;;;5.97;2.25;;;;;;;13.70;62.20;97385.22;5038699;27;100604;-90
2024/03/28 07:24:04;;;;;;;8.90;2.15;;;;;;;13.69;62.21;97408.13;5039177;27;96639;-89
2024/03/28 07:26:29;;;;;;;4.88;2.20;;;;;;;13.63;62.23;97402.59;5022374;27;96845;-89
2024/03/28 07:28:55;;;;;;;3.53;2.17;;;;;;;13.78;61.93;97404.63;5021097;27;99376;-90
2024/03/28 07:31:20;;;;;;;5.05;2.00;;;;;;;13.96;61.66;97417.06;5038706;27;98286;-88
2024/03/28 07:33:46;;;;;;;4.35;1.85;;;;;;;14.04;61.00;97425.09;5038484;27;96494;-89
2024/03/28 07:36:11;;;;;;;7.97;1.85;;;;;;;13.99;60.59;97438.75;5020808;27;96721;-80
2024/03/28 07:38:37;;;;;;;4.18;2.08;;;;;;;14.03;60.41;97441.91;5037045;27;97543;-86
2024/03/28 07:41:03;;;;;;;4.80;2.05;;;;;;;13.99;59.98;97444.00;5036665;27;100046;-83
2024/03/28 07:43:29;;;;;;;5.55;1.60;;;;;;;13.89;60.54;97443.19;5054397;27;96784;-83
2024/03/28 07:46:05;;;;;;;3.03;1.48;;;;;;;13.79;59.10;97456.41;5037166;27;96601;-83
2024/03/28 07:48:33;;;;;;;4.22;0.93;;;;;;;13.74;58.71;97455.16;5036513;27;101206;-82
2024/03/28 07:51:02;;;;;;;1.40;1.10;;;;;;;13.79;58.30;97453.78;5053767;27;97818;-82
2024/03/28 07:53:29;;;;;;;8.27;2.15;;;;;;;13.80;57.94;97447.50;5036379;27;96568;-82
2024/03/28 07:55:54;;;;;;;3.55;1.55;;;;;;;13.88;57.86;97470.56;5019914;27;96802;-83
2024/03/28 07:58:25;;;;;;;4.00;1.48;;;;;;;13.89;57.81;97485.38;5036665;27;102122;-82
2024/03/28 08:00:51;;;;;;;8.30;1.70;;;;;;;13.76;58.24;97480.41;5053581;27;97328;-82
2024/03/28 08:03:19;;;;;;;2.60;1.30;;;;;;;13.78;58.57;97489.00;5036828;27;96835;-82
2024/03/28 08:05:49;;;;;;;2.08;1.85;;;;;;;13.76;57.76;97492.78;5036866;27;96752;-84
2024/03/28 08:08:19;;;;;;;2.07;1.13;;;;;;;13.86;57.68;97479.56;5036417;27;101471;-83
2024/03/28 08:10:44;;;;;;;1.92;1.20;;;;;;;13.97;57.42;97477.59;5036586;27;101129;-83
2024/03/28 08:13:10;;;;;;;3.78;1.02;;;;;;;14.07;56.99;97474.09;5020039;27;96588;-83
2024/03/28 08:15:37;;;;;;;3.10;1.27;;;;;;;14.04;57.13;97470.75;5036767;27;96793;-83
2024/03/28 08:18:03;;;;;;;4.40;1.10;;;;;;;14.01;57.04;97500.06;5035600;27;101467;-82
2024/03/28 08:20:29;;;;;;;1.27;1.02;;;;;;;14.11;56.39;97523.81;5019599;27;101838;-83
2024/03/28 08:22:58;;;;;;;3.63;1.30;;;;;;;14.05;56.22;97534.91;5052859;27;96614;-84
2024/03/28 08:25:24;;;;;;;1.25;0.95;;;;;;;13.98;56.34;97520.63;5037199;27;96750;-83
2024/03/28 08:27:50;;;;;;;2.90;1.10;;;;;;;13.91;55.67;97552.00;5053367;27;97721;-83
2024/03/28 08:30:17;;;;;;;6.30;1.20;;;;;;;13.84;55.06;97576.44;5035909;27;101288;-83
2024/03/28 08:32:43;;;;;;;1.52;0.82;;;;;;;13.69;54.75;97581.28;5019811;27;96646;-83
2024/03/28 08:35:13;;;;;;;3.30;1.48;;;;;;;13.55;54.76;97587.78;5054258;27;96537;-83
2024/03/28 08:37:39;;;;;;;2.08;1.10;;;;;;;13.58;54.77;97590.16;5035880;27;100944;-83
2024/03/28 08:40:09;;;;;;;3.00;1.08;;;;;;;13.66;55.11;97592.09;5036528;27;97357;-84
2024/03/28 08:42:38;;;;;;;3.88;1.20;;;;;;;13.58;54.72;97595.41;5019233;27;96744;-83
2024/03/28 08:45:08;;;;;;;4.47;1.40;;;;;;;13.44;54.67;97595.81;5035919;27;96953;-84
2024/03/28 08:47:35;;;;;;;3.72;1.30;;;;;;;13.44;54.05;97598.44;5035898;27;102062;-83
2024/03/28 08:50:03;;;;;;;4.30;1.25;;;;;;;13.47;54.25;97583.22;5035131;27;101168;-83
2024/03/28 08:52:30;;;;;;;5.90;1.38;;;;;;;13.76;53.70;97608.78;5035984;27;96677;-83
2024/03/28 08:54:56;;;;;;;2.55;1.42;;;;;;;13.73;53.71;97614.28;5036131;27;96745;-84
2024/03/28 08:57:23;;;;;;;2.17;1.08;;;;;;;13.74;53.75;97611.53;5035376;27;101127;-83
2024/03/28 08:59:50;;;;;;;5.70;1.10;;;;;;;13.76;53.42;97612.25;5052760;27;97498;-83
2024/03/28 09:02:19;;;;;;;2.33;1.05;;;;;;;13.69;53.08;97626.91;5036317;27;96622;-83
2024/03/28 09:04:46;;;;;;;1.10;0.90;;;;;;;13.63;52.96;97626.66;5035296;27;96954;-84
2024/03/28 09:07:15;;;;;;;3.75;1.00;;;;;;;13.52;53.13;97628.41;5018085;27;101169;-83
2024/03/28 09:09:41;;;;;;;2.03;0.80;;;;;;;13.48;53.37;97620.94;5052511;27;97891;-82
2024/03/28 09:12:07;;;;;;;3.63;0.80;;;;;;;13.33;53.27;97600.25;5018791;27;96599;-83
2024/03/28 09:14:34;;;;;;;3.40;0.95;;;;;;;13.48;53.15;97615.66;5035980;27;96892;-82
2024/03/28 09:17:00;;;;;;;3.42;1.10;;;;;;;13.66;52.70;97634.28;5035641;27;97522;-83
2024/03/28 09:19:25;;;;;;;5.00;1.50;;;;;;;13.65;52.50;97635.25;5052293;27;97970;-83
2024/03/28 09:21:51;;;;;;;2.45;0.95;;;;;;;13.72;52.65;97647.72;5052635;27;96633;-82
2024/03/28 09:24:17;;;;;;;7.53;1.08;;;;;;;13.73;52.12;97653.84;5035986;27;96788;-83
2024/03/28 09:26:43;;;;;;;3.35;0.90;;;;;;;13.54;52.52;97637.03;5035745;27;97999;-83
2024/03/28 09:29:09;;;;;;;1.02;0.90;;;;;;;13.39;52.84;97659.47;5034950;27;101061;-83
2024/03/28 09:31:35;;;;;;;2.53;1.58;;;;;;;13.33;52.32;97646.84;5035193;27;96635;-83
2024/03/28 09:34:00;;;;;;;1.33;1.23;;;;;;;13.55;52.48;97670.31;5036678;27;96999;-82
2024/03/28 09:36:26;;;;;;;4.72;1.10;;;;;;;13.54;52.62;97668.66;5055533;27;98079;-83
2024/03/28 09:38:51;;;;;;;1.48;1.00;;;;;;;13.49;53.22;97656.84;5038989;27;97428;-82
2024/03/28 09:41:20;;;;;;;1.60;1.10;;;;;;;13.56;53.27;97679.06;5055901;27;96553;-83
2024/03/28 09:43:46;;;;;;;2.80;1.33;;;;;;;13.72;53.18;97668.00;5055637;27;96575;-81
2024/03/28 09:46:14;;;;;;;2.00;1.10;;;;;;;13.82;52.67;97676.78;5038463;27;97496;-82
2024/03/28 09:48:41;;;;;;;2.75;1.23;;;;;;;13.74;52.45;97653.72;5039380;27;98150;-79
2024/03/28 09:51:08;;;;;;;2.17;1.30;;;;;;;14.04;52.68;97676.50;5057272;27;96601;-87
2024/03/28 09:53:35;;;;;;;2.33;1.40;;;;;;;14.12;52.25;97673.19;5039222;27;96942;-82
2024/03/28 09:56:01;;;;;;;2.92;1.30;;;;;;;14.00;51.77;97677.75;5038718;27;97988;-86
2024/03/28 09:58:26;;;;;;;1.70;1.33;;;;;;;14.10;51.29;97677.75;5038637;27;101150;-83
2024/03/28 10:00:53;;;;;;;2.10;1.15;;;;;;;14.41;50.90;97694.28;5038786;27;96612;-83
2024/03/28 10:03:30;;;;;;;2.42;1.30;;;;;;;14.10;51.21;97695.38;5021500;27;96942;-79
2024/03/28 10:05:57;;;;;;;1.55;1.42;;;;;;;14.25;51.00;97694.84;5038338;27;101422;-79
2024/03/28 10:08:25;;;;;;;5.07;1.40;;;;;;;14.46;50.18;97693.88;5038114;27;101462;-79
2024/03/28 10:10:52;;;;;;;5.03;1.20;;;;;;;14.68;49.11;97714.69;5038560;27;96841;-80
2024/03/28 10:13:18;;;;;;;3.67;1.10;;;;;;;14.41;49.69;97719.84;5038908;27;96783;-79
2024/03/28 10:15:54;;;;;;;2.30;1.23;;;;;;;14.44;50.01;97727.47;5055091;27;97534;-79
2024/03/28 10:18:19;;;;;;;4.10;1.20;;;;;;;14.21;50.29;97735.66;5038151;27;97146;-77
2024/03/28 10:20:57;;;;;;;2.60;1.15;;;;;;;13.79;50.78;97738.50;5037569;27;96676;-78
2024/03/28 10:23:23;;;;;;;3.38;1.45;;;;;;;13.75;51.02;97736.28;5038276;27;96833;-77
2024/03/28 10:25:51;;;;;;;4.43;1.10;;;;;;;13.86;50.91;97745.88;5037853;27;101274;-79
2024/03/28 10:28:23;;;;;;;4.85;1.25;;;;;;;13.97;50.36;97740.50;5038031;27;100925;-79
2024/03/28 10:30:53;;;;;;;6.70;1.33;;;;;;;14.11;50.49;97732.19;5038004;27;96617;-81
2024/03/28 10:33:19;;;;;;;0.70;0.70;;;;;;;14.31;49.95;97743.59;5055124;27;96751;-80
2024/03/28 10:36:02;;;;;;;1.25;0.90;;;;;;;14.45;49.99;97732.59;5037921;27;97990;-80
2024/03/28 10:38:28;;;;;;;5.90;1.20;;;;;;;14.45;49.74;97735.25;5020790;27;101659;-81
2024/03/28 10:40:55;;;;;;;2.08;1.30;;;;;;;14.42;49.99;97751.34;5054857;27;96581;-84
2024/03/28 10:43:27;;;;;;;5.03;1.75;;;;;;;14.37;49.88;97735.13;5038206;27;96903;-84
2024/03/28 10:46:02;;;;;;;4.07;1.70;;;;;;;14.83;48.99;97743.31;5035907;27;101351;-82
2024/03/28 10:48:29;;;;;;;1.40;0.98;;;;;;;14.84;48.94;97742.34;5037235;27;101022;-82
2024/03/28 10:51:17;;;;;;;2.08;1.15;;;;;;;15.10;48.79;97759.25;5037768;27;96558;-81
2024/03/28 10:54:11;;;;;;;2.03;1.05;;;;;;;15.27;48.44;97754.19;5037398;27;96859;-82
2024/03/28 10:56:38;;;;;;;2.67;0.90;;;;;;;15.59;48.50;97759.94;5037446;27;98491;-82
2024/03/28 10:59:04;;;;;;;3.05;1.10;;;;;;;15.48;48.02;97759.28;5054378;27;97327;-81
2024/03/28 11:01:31;;;;;;;2.15;1.35;;;;;;;15.36;47.98;97767.38;5037921;27;96664;-85
2024/03/28 11:03:59;;;;;;;5.20;1.48;;;;;;;15.21;48.17;97766.16;5037902;27;96906;-82
2024/03/28 11:06:25;;;;;;;5.93;1.52;;;;;;;15.53;47.64;97759.66;5036954;27;100783;-82
2024/03/28 11:08:57;;;;;;;2.15;1.25;;;;;;;15.49;47.79;97756.47;5053348;27;100418;-79
2024/03/28 11:11:23;;;;;;;;;;;;;;;15.82;47.31;97765.69;5054176;27;96736;-79
2024/03/28 11:13:48;;;;;;;2.63;1.42;;;;;;;15.42;47.05;97776.56;5037430;27;96876;-78
2024/03/28 11:16:15;;;;;;;1.65;1.35;;;;;;;15.18;47.78;97774.38;5055088;27;97235;-82
2024/03/28 11:18:42;;;;;;;4.93;1.55;;;;;;;15.19;47.89;97794.56;5036634;27;101230;-83
2024/03/28 11:21:07;;;;;;;1.67;1.58;;;;;;;15.09;47.61;97793.72;5019718;27;96635;-83
2024/03/28 11:23:34;;;;;;;3.70;1.40;;;;;;;15.20;47.39;97775.06;5037280;27;96915;-82
2024/03/28 11:26:07;;;;;;;11.52;1.77;;;;;;;15.01;47.85;97781.25;5053977;27;97535;-84
2024/03/28 11:28:39;;;;;;;4.15;1.40;;;;;;;15.47;47.04;97781.38;5019869;27;100856;-84
2024/03/28 11:31:05;;;;;;;3.20;1.58;;;;;;;15.68;45.99;97782.06;5036906;27;96707;-84